EHVL

Vlieland Heliport

Vlieland, The Netherlands
METAR EHVL 211325Z AUTO 01014KT 9999 SCT100 21/15 Q1012 BLU
Observed Flight Rules
Jul-21 @ 13:25 UTC (29 minutes ago) Visual Flight Rules
Wind Visibility Clouds
10° at 14 knots 10,000+ meters
  • Scattered at 10,000' AGL
Temperatures Readings
Current 21°C / 70°F
Dewpoint 15°C / 59°F
Humidity 69%
Altimeter 29.88" Hg
Pressure 1012 hPa
Elevation 5
METAR EHVL 211325Z AUTO 01014KT 9999 SCT100 21/15 Q1012 BLU
Observed Flight Rules
Jul-21 @ 13:25 UTC
(29 minutes ago)
VFR
Wind Visibility
10° at 14 knots 10,000+ meters
Clouds
  • Scattered at 10,000' AGL
Temperature Dewpoint
21°C / 70°F 15°C / 59°F
Humidity Altimeter Pressure
69% 29.88" Hg 1012 hPa